Time;durP1;ratioP1;P1;durP2;ratioP2;P2;SDS_P1;SDS_P2;PMS_P1;PMS_P2;Temp;Humidity;BMP_temperature;BMP_pressure;BME280_temperature;BME280_humidity;BME280_pressure;Samples;Min_cycle;Max_cycle;Signal;HPM_P1;HPM_P2
2021/12/31 00:02:12;;;;;;;5.55;2.70;;;;;;;14.42;76.25;100567.56;5083451;28;20056;-81
2021/12/31 00:04:39;;;;;;;4.70;2.05;;;;;;;14.53;75.92;100562.38;5077713;28;20048;-80
2021/12/31 00:07:07;;;;;;;4.03;2.28;;;;;;;14.52;75.75;100564.38;5076492;28;20048;-81
2021/12/31 00:09:34;;;;;;;5.85;2.35;;;;;;;14.52;75.40;100557.97;5076984;28;20386;-81
2021/12/31 00:12:02;;;;;;;3.28;2.10;;;;;;;14.57;75.26;100567.03;5076321;28;20048;-81
2021/12/31 00:14:31;;;;;;;3.22;1.92;;;;;;;14.55;75.23;100566.53;5076868;28;20059;-81
2021/12/31 00:16:59;;;;;;;6.40;2.08;;;;;;;14.54;75.02;100558.44;5077050;28;20060;-80
2021/12/31 00:19:30;;;;;;;4.15;2.22;;;;;;;14.51;74.88;100564.72;5076820;28;20056;-81
2021/12/31 00:21:59;;;;;;;4.75;2.05;;;;;;;14.41;75.20;100561.16;5058537;28;20441;-81
2021/12/31 00:24:27;;;;;;;3.97;1.77;;;;;;;14.45;75.00;100571.66;5076237;28;20075;-82
2021/12/31 00:26:55;;;;;;;3.95;1.85;;;;;;;14.52;74.89;100555.97;5076616;28;20056;-81
2021/12/31 00:29:23;;;;;;;3.78;1.63;;;;;;;14.53;74.64;100562.38;5077364;28;20071;-81
2021/12/31 00:31:52;;;;;;;4.85;2.47;;;;;;;14.59;73.61;100555.47;5076825;28;20423;-82
2021/12/31 00:34:19;;;;;;;3.75;2.05;;;;;;;14.47;74.15;100553.38;5077123;28;20051;-81
2021/12/31 00:36:47;;;;;;;5.10;2.20;;;;;;;14.53;73.84;100556.78;5076396;28;20052;-81
2021/12/31 00:39:15;;;;;;;4.63;1.95;;;;;;;14.52;73.84;100553.16;5076742;28;20053;-81
2021/12/31 00:41:43;;;;;;;5.57;2.00;;;;;;;14.65;73.06;100551.28;5075455;28;20048;-80
2021/12/31 00:44:10;;;;;;;4.70;1.85;;;;;;;14.72;72.90;100550.75;5076679;28;20049;-80
2021/12/31 00:46:38;;;;;;;6.25;2.30;;;;;;;14.70;72.24;100547.47;5075419;28;20059;-80
2021/12/31 00:49:07;;;;;;;3.97;1.70;;;;;;;14.75;72.05;100556.50;5075899;28;20052;-81
2021/12/31 00:51:35;;;;;;;5.68;1.92;;;;;;;14.78;71.84;100563.41;5075990;28;20048;-81
2021/12/31 00:58:22;;;;;;;5.18;1.90;;;;;;;14.69;71.69;100548.63;5081906;28;20052;-81
2021/12/31 01:00:50;;;;;;;3.90;1.88;;;;;;;14.70;71.90;100555.88;5075767;28;20057;-81
2021/12/31 01:03:17;;;;;;;2.92;1.80;;;;;;;14.71;71.79;100560.34;5076219;28;20061;-82
2021/12/31 01:05:46;;;;;;;7.18;2.08;;;;;;;14.75;71.44;100558.50;5076052;28;20390;-81
2021/12/31 01:08:14;;;;;;;2.50;1.48;;;;;;;14.76;71.43;100543.31;5075683;28;20060;-81
2021/12/31 01:10:41;;;;;;;2.80;1.55;;;;;;;14.72;71.03;100565.63;5075529;28;20094;-81
2021/12/31 01:13:14;;;;;;;4.20;1.70;;;;;;;14.81;70.18;100540.31;5076237;28;20055;-81
2021/12/31 01:15:45;;;;;;;3.78;1.45;;;;;;;14.89;69.99;100559.06;5075829;28;20055;-81
2021/12/31 01:20:57;;;;;;;3.33;1.60;;;;;;;14.89;69.86;100556.25;5077479;28;20059;-81
2021/12/31 01:23:25;;;;;;;4.53;1.60;;;;;;;14.93;69.80;100559.19;5076098;28;20052;-81
2021/12/31 01:25:52;;;;;;;3.85;1.58;;;;;;;14.87;69.65;100567.00;5076541;28;20048;-82
2021/12/31 01:28:22;;;;;;;3.50;1.63;;;;;;;14.92;69.53;100569.56;5076097;28;20059;-81
2021/12/31 01:30:49;;;;;;;;;;;;;;;14.83;69.47;100560.41;5076319;28;20045;-81
2021/12/31 01:33:20;;;;;;;5.03;1.30;;;;;;;14.96;68.82;100573.34;5075958;28;19920;-82
2021/12/31 01:35:47;;;;;;;4.85;1.70;;;;;;;14.99;68.37;100569.88;5076136;28;20067;-80
2021/12/31 01:38:16;;;;;;;4.20;1.60;;;;;;;15.06;68.46;100574.94;5075902;28;20374;-81
2021/12/31 01:40:44;;;;;;;4.38;1.27;;;;;;;15.10;68.44;100575.03;5074830;28;20083;-81
2021/12/31 01:43:12;;;;;;;3.80;1.40;;;;;;;15.02;68.61;100583.19;5074792;28;20059;-81
2021/12/31 01:45:47;;;;;;;2.72;1.50;;;;;;;15.06;68.26;100574.13;5074889;28;20053;-81
2021/12/31 01:48:26;;;;;;;2.08;1.10;;;;;;;15.16;68.12;100574.53;5075092;28;20060;-81
2021/12/31 01:50:53;;;;;;;4.05;1.80;;;;;;;15.14;68.04;100564.78;5074350;28;20056;-81
2021/12/31 01:53:26;;;;;;;2.60;1.33;;;;;;;15.06;68.31;100568.50;5075250;28;20061;-81
2021/12/31 01:55:56;;;;;;;3.65;1.45;;;;;;;15.07;68.16;100570.94;5075803;28;20059;-81
2021/12/31 01:58:26;;;;;;;3.55;1.50;;;;;;;14.97;68.11;100560.13;5075631;28;20059;-80
2021/12/31 02:00:54;;;;;;;3.72;1.48;;;;;;;15.09;68.04;100570.63;5075511;28;20063;-80
2021/12/31 02:03:23;;;;;;;2.65;1.20;;;;;;;15.11;67.85;100571.09;5076396;28;20053;-80
2021/12/31 02:05:51;;;;;;;3.53;1.30;;;;;;;15.06;68.13;100574.13;5075265;28;20048;-81
2021/12/31 02:08:19;;;;;;;3.00;1.30;;;;;;;15.15;67.66;100569.25;5074717;28;20478;-81
2021/12/31 02:10:50;;;;;;;3.47;1.40;;;;;;;15.18;67.62;100571.34;5074641;28;20052;-81
2021/12/31 02:13:18;;;;;;;2.70;1.17;;;;;;;15.20;67.50;100569.03;5075331;28;20493;-80
2021/12/31 02:15:45;;;;;;;3.15;1.20;;;;;;;15.28;67.34;100570.94;5074295;28;20057;-81
2021/12/31 02:18:13;;;;;;;3.97;1.50;;;;;;;15.27;66.80;100568.50;5074142;28;20059;-81
2021/12/31 02:20:44;;;;;;;4.13;1.30;;;;;;;15.28;67.01;100564.50;5074132;28;20064;-81
2021/12/31 02:23:15;;;;;;;2.90;1.38;;;;;;;15.27;66.57;100562.88;5074943;28;20147;-81
2021/12/31 02:25:43;;;;;;;4.38;1.48;;;;;;;15.19;66.91;100567.38;5074162;28;20440;-81
2021/12/31 02:28:11;;;;;;;3.78;1.48;;;;;;;15.19;66.97;100565.41;5074454;28;20044;-81
2021/12/31 02:30:39;;;;;;;2.92;1.30;;;;;;;15.20;66.66;100567.06;5074562;28;20080;-81
2021/12/31 02:33:07;;;;;;;3.25;1.42;;;;;;;15.19;66.63;100567.38;5075959;28;20048;-81
2021/12/31 02:35:36;;;;;;;3.83;1.60;;;;;;;15.18;66.47;100572.19;5078266;28;20045;-81
2021/12/31 02:38:07;;;;;;;2.42;1.30;;;;;;;15.19;66.67;100568.22;5078324;28;20045;-81
2021/12/31 02:40:35;;;;;;;2.80;1.33;;;;;;;15.26;66.91;100583.66;5078224;28;20401;-81
2021/12/31 02:43:04;;;;;;;2.47;1.33;;;;;;;15.28;66.37;100584.97;5078068;28;20401;-80
2021/12/31 02:45:35;;;;;;;2.17;1.20;;;;;;;15.24;66.51;100581.19;5078923;28;20052;-81
2021/12/31 02:48:05;;;;;;;3.17;1.30;;;;;;;15.32;66.46;100585.09;5078205;28;20048;-81
2021/12/31 02:50:35;;;;;;;2.17;1.17;;;;;;;15.31;66.26;100575.06;5077205;28;20067;-81
2021/12/31 02:53:05;;;;;;;2.85;1.10;;;;;;;15.32;66.25;100565.47;5077756;28;20076;-81
2021/12/31 02:55:35;;;;;;;3.63;1.48;;;;;;;15.29;66.12;100571.78;5078624;28;20052;-80
2021/12/31 02:58:03;;;;;;;2.85;1.20;;;;;;;15.27;66.14;100572.13;5077861;28;20060;-81
2021/12/31 03:00:32;;;;;;;3.45;1.58;;;;;;;15.26;66.10;100567.66;5076531;28;20523;-81
2021/12/31 03:03:00;;;;;;;2.72;1.42;;;;;;;15.28;65.91;100564.50;5078103;28;20493;-81
2021/12/31 03:05:29;;;;;;;2.60;1.15;;;;;;;15.23;66.21;100555.13;5077473;28;20053;-81
2021/12/31 03:07:58;;;;;;;2.72;1.35;;;;;;;15.06;66.91;100560.09;5077009;28;20045;-80
2021/12/31 03:10:29;;;;;;;2.13;1.27;;;;;;;15.18;66.39;100560.13;5077500;28;20052;-81
2021/12/31 03:12:58;;;;;;;2.90;1.10;;;;;;;15.05;66.33;100552.81;5077778;28;20064;-81
2021/12/31 03:15:26;;;;;;;3.20;1.50;;;;;;;15.15;66.68;100560.81;5077889;28;20067;-81
2021/12/31 03:17:57;;;;;;;3.45;1.27;;;;;;;15.19;66.50;100558.97;5076961;28;20059;-80
2021/12/31 03:20:36;;;;;;;3.22;1.25;;;;;;;15.16;66.47;100556.84;5076272;28;20489;-81
2021/12/31 03:23:04;;;;;;;2.35;1.20;;;;;;;15.11;66.30;100548.66;5056420;28;20053;-80
2021/12/31 03:25:33;;;;;;;3.67;1.75;;;;;;;15.14;66.87;100554.41;5056815;28;20053;-81
2021/12/31 03:28:00;;;;;;;3.20;1.23;;;;;;;15.13;66.21;100555.53;5056506;28;20060;-80
2021/12/31 03:30:30;;;;;;;2.80;1.42;;;;;;;15.19;66.14;100556.16;5059220;28;20057;-81
2021/12/31 03:32:57;;;;;;;2.72;1.00;;;;;;;15.14;66.23;100556.34;5076273;28;20469;-81
2021/12/31 03:35:25;;;;;;;3.80;1.33;;;;;;;15.21;65.82;100556.66;5076974;28;20048;-80
2021/12/31 03:37:54;;;;;;;2.67;1.30;;;;;;;15.27;65.51;100551.66;5067291;28;20056;-81
2021/12/31 03:40:22;;;;;;;4.80;1.60;;;;;;;15.23;65.62;100557.13;5058450;28;20060;-81
2021/12/31 03:42:50;;;;;;;2.58;1.15;;;;;;;15.09;65.77;100556.59;5073904;28;20048;-81
2021/12/31 03:45:18;;;;;;;2.90;1.20;;;;;;;15.16;65.48;100551.22;5057345;28;20049;-82
2021/12/31 03:47:45;;;;;;;3.00;1.30;;;;;;;15.30;65.28;100550.94;5057310;28;20048;-81
2021/12/31 03:50:13;;;;;;;2.53;1.30;;;;;;;15.20;65.66;100550.22;5057735;28;20049;-81
2021/12/31 03:52:41;;;;;;;2.17;0.93;;;;;;;15.27;65.60;100548.84;5075502;28;20079;-82
2021/12/31 03:55:11;;;;;;;2.35;0.98;;;;;;;15.16;65.52;100545.63;5077398;28;20060;-81
2021/12/31 03:57:42;;;;;;;3.78;1.30;;;;;;;15.21;65.30;100543.44;5077447;28;20048;-81
2021/12/31 04:00:14;;;;;;;2.25;1.23;;;;;;;15.24;65.34;100550.34;5077650;28;20055;-81
2021/12/31 04:02:42;;;;;;;2.13;1.20;;;;;;;15.24;65.06;100541.91;5081256;28;20047;-81
2021/12/31 04:05:09;;;;;;;3.58;1.50;;;;;;;15.22;65.16;100545.09;5077589;28;20091;-81
2021/12/31 04:07:37;;;;;;;4.00;1.40;;;;;;;15.23;65.33;100545.91;5077264;28;20056;-81
2021/12/31 04:10:05;;;;;;;3.15;1.35;;;;;;;15.25;65.22;100537.97;5076734;28;20056;-81
2021/12/31 04:12:33;;;;;;;1.60;1.10;;;;;;;15.29;65.33;100538.91;5077155;28;20060;-81
2021/12/31 04:15:00;;;;;;;3.25;1.40;;;;;;;15.27;65.39;100530.00;5077630;28;20048;-81
2021/12/31 04:17:29;;;;;;;2.75;1.17;;;;;;;15.26;65.18;100535.97;5076025;28;20059;-81
2021/12/31 04:19:57;;;;;;;2.72;1.35;;;;;;;15.25;65.22;100526.72;5076720;28;20057;-82
2021/12/31 04:22:27;;;;;;;3.15;1.30;;;;;;;15.22;65.35;100527.41;5076005;28;20056;-82
2021/12/31 04:24:55;;;;;;;2.90;1.20;;;;;;;15.18;65.38;100526.44;5076866;28;20053;-81
2021/12/31 04:27:25;;;;;;;2.65;1.00;;;;;;;15.16;65.46;100525.97;5075840;28;20056;-81
2021/12/31 04:29:53;;;;;;;1.85;1.25;;;;;;;15.06;65.82;100526.44;5075367;28;20052;-82
2021/12/31 04:32:23;;;;;;;2.53;0.95;;;;;;;15.12;65.81;100544.66;5076620;28;20497;-81
2021/12/31 04:34:51;;;;;;;1.70;0.90;;;;;;;15.03;65.71;100530.72;5076511;28;20056;-80
2021/12/31 04:37:19;;;;;;;2.67;1.20;;;;;;;15.04;65.75;100523.13;5075188;28;20404;-81
2021/12/31 04:39:46;;;;;;;2.58;1.08;;;;;;;15.08;65.61;100518.50;5076198;28;20431;-82
2021/12/31 04:42:17;;;;;;;4.38;1.48;;;;;;;15.09;65.35;100515.31;5075526;28;20048;-81
2021/12/31 04:44:49;;;;;;;4.50;1.15;;;;;;;15.14;65.36;100508.66;5056030;28;20453;-81
2021/12/31 04:47:19;;;;;;;2.60;1.58;;;;;;;15.06;65.53;100513.22;5055572;28;20053;-81
2021/12/31 04:49:46;;;;;;;4.95;1.45;;;;;;;15.09;65.61;100518.13;5056377;28;20045;-81
2021/12/31 04:52:15;;;;;;;3.10;1.10;;;;;;;14.97;66.08;100527.31;5073412;28;20048;-81
2021/12/31 04:54:42;;;;;;;2.58;1.25;;;;;;;14.97;66.07;100520.88;5076761;28;20067;-81
2021/12/31 04:57:10;;;;;;;3.97;1.48;;;;;;;14.97;66.21;100527.31;5075179;28;20536;-81
2021/12/31 04:59:37;;;;;;;2.55;1.00;;;;;;;14.99;65.77;100525.00;5076725;28;20056;-81
2021/12/31 05:02:05;;;;;;;3.25;1.38;;;;;;;14.97;65.86;100524.50;5076056;28;20056;-81
2021/12/31 05:04:33;;;;;;;4.00;1.45;;;;;;;14.87;66.11;100519.31;5075596;28;20048;-80
2021/12/31 05:07:00;;;;;;;4.50;1.38;;;;;;;14.86;66.12;100520.47;5075725;28;20052;-81
2021/12/31 05:09:29;;;;;;;3.85;1.10;;;;;;;14.87;66.21;100507.28;5075793;28;20049;-81
2021/12/31 05:11:56;;;;;;;2.50;1.10;;;;;;;14.85;66.14;100509.59;5074795;28;20513;-80
2021/12/31 05:14:24;;;;;;;3.78;1.38;;;;;;;14.81;66.10;100517.88;5062742;28;20060;-82
2021/12/31 05:16:51;;;;;;;2.78;1.08;;;;;;;14.77;66.33;100517.72;5075558;28;20056;-81
2021/12/31 05:19:21;;;;;;;5.20;1.20;;;;;;;14.79;66.52;100511.78;5075443;28;20055;-80
2021/12/31 05:21:48;;;;;;;3.33;1.40;;;;;;;14.80;66.42;100514.25;5074706;28;20057;-80
2021/12/31 05:24:16;;;;;;;3.38;1.15;;;;;;;14.80;66.48;100519.03;5076230;28;20052;-81
2021/12/31 05:26:45;;;;;;;1.90;1.10;;;;;;;14.73;66.51;100527.16;5075893;28;20063;-80
2021/12/31 05:29:13;;;;;;;2.35;1.20;;;;;;;14.75;66.48;100513.63;5076158;28;20052;-81
2021/12/31 05:31:40;;;;;;;3.28;1.30;;;;;;;14.68;66.70;100511.38;5075686;28;20067;-81
2021/12/31 05:34:07;;;;;;;2.20;1.10;;;;;;;14.72;66.49;100515.16;5075531;28;20052;-81
2021/12/31 05:36:35;;;;;;;3.45;1.15;;;;;;;14.72;66.62;100512.34;5075787;28;20421;-81
2021/12/31 05:39:02;;;;;;;2.28;1.02;;;;;;;14.69;66.97;100515.81;5074669;28;20052;-80
2021/12/31 05:41:32;;;;;;;2.78;1.20;;;;;;;14.54;67.34;100514.41;5074103;28;20465;-81
2021/12/31 05:44:00;;;;;;;;;;;;;;;14.49;67.25;100516.56;5075119;28;20055;-81
2021/12/31 05:46:28;;;;;;;3.40;1.20;;;;;;;14.53;67.26;100515.59;5075260;28;20285;-81
2021/12/31 05:48:55;;;;;;;1.70;1.00;;;;;;;14.45;67.57;100505.25;5075414;28;20423;-81
2021/12/31 05:51:26;;;;;;;3.17;1.45;;;;;;;14.48;67.67;100503.75;5075190;28;20051;-81
2021/12/31 05:53:53;;;;;;;2.20;1.40;;;;;;;14.44;67.56;100497.97;5074422;28;20060;-81
2021/12/31 05:56:21;;;;;;;3.00;1.02;;;;;;;14.41;67.67;100496.69;5075395;28;20062;-80
2021/12/31 05:58:48;;;;;;;3.83;1.33;;;;;;;14.44;67.37;100497.16;5075032;28;20466;-81
2021/12/31 06:01:17;;;;;;;2.20;1.15;;;;;;;14.43;67.49;100496.34;5074305;28;20052;-82
2021/12/31 06:03:45;;;;;;;2.78;1.20;;;;;;;14.36;67.78;100501.66;5074434;28;20056;-81
2021/12/31 06:06:12;;;;;;;2.20;1.05;;;;;;;14.35;67.62;100502.84;5073961;28;20055;-81
2021/12/31 06:08:40;;;;;;;2.67;1.30;;;;;;;14.34;67.52;100498.38;5075718;28;20048;-81
2021/12/31 06:11:09;;;;;;;1.90;1.00;;;;;;;14.27;67.82;100500.91;5078471;28;20049;-80
2021/12/31 06:13:37;;;;;;;3.83;1.20;;;;;;;14.28;67.85;100492.16;5069877;28;20064;-81
2021/12/31 06:16:05;;;;;;;2.88;1.30;;;;;;;14.28;67.92;100486.56;5058408;28;20139;-80
2021/12/31 06:18:34;;;;;;;3.25;1.30;;;;;;;14.23;68.00;100485.94;5058039;28;20056;-80
2021/12/31 06:21:02;;;;;;;3.42;1.42;;;;;;;14.13;68.28;100485.16;5064361;28;20056;-80
2021/12/31 06:23:30;;;;;;;4.03;1.40;;;;;;;14.05;68.41;100474.00;5077584;28;20060;-80
2021/12/31 06:25:57;;;;;;;3.13;1.48;;;;;;;13.89;69.33;100476.56;5077839;28;20408;-81
2021/12/31 06:28:25;;;;;;;2.60;0.98;;;;;;;13.84;69.27;100471.13;5077720;28;20059;-80
2021/12/31 06:30:52;;;;;;;3.00;1.20;;;;;;;13.78;69.42;100471.34;5077662;28;20123;-81
2021/12/31 06:33:19;;;;;;;3.50;1.63;;;;;;;13.74;69.70;100486.34;5077352;28;20041;-80
2021/12/31 06:35:48;;;;;;;2.38;1.30;;;;;;;13.74;69.96;100491.94;5077532;28;20060;-80
2021/12/31 06:38:17;;;;;;;2.38;1.05;;;;;;;13.78;69.85;100488.13;5077310;28;20505;-80
2021/12/31 06:40:44;;;;;;;2.53;1.20;;;;;;;13.87;69.60;100498.47;5076856;28;20049;-80
2021/12/31 06:43:12;;;;;;;3.65;1.25;;;;;;;13.93;69.28;100500.75;5077399;28;20048;-81
2021/12/31 06:45:39;;;;;;;3.28;1.48;;;;;;;13.92;69.40;100503.88;5076639;28;20409;-81
2021/12/31 06:48:07;;;;;;;2.67;1.50;;;;;;;14.03;69.00;100505.16;5077338;28;20048;-81
2021/12/31 06:50:34;;;;;;;3.03;1.52;;;;;;;14.06;69.00;100500.84;5076044;28;20048;-81
2021/12/31 06:53:03;;;;;;;3.17;1.58;;;;;;;14.05;69.05;100502.84;5076924;28;20063;-81
2021/12/31 06:55:32;;;;;;;2.65;1.40;;;;;;;14.08;68.90;100507.75;5076123;28;20048;-81
2021/12/31 06:57:59;;;;;;;3.25;1.30;;;;;;;14.12;69.00;100508.72;5076800;28;20044;-81
2021/12/31 07:00:27;;;;;;;3.28;1.55;;;;;;;14.00;69.29;100495.44;5076555;28;20055;-81
2021/12/31 07:03:05;;;;;;;3.53;1.50;;;;;;;14.06;68.76;100486.84;5076929;28;20481;-81
2021/12/31 07:05:33;;;;;;;4.43;1.65;;;;;;;14.07;69.03;100486.53;5077221;28;20063;-80
2021/12/31 07:08:01;;;;;;;5.53;1.55;;;;;;;13.96;69.19;100474.03;5076929;28;20055;-81
2021/12/31 07:10:32;;;;;;;3.22;1.50;;;;;;;13.81;69.53;100464.22;5076736;28;20053;-80
2021/12/31 07:13:04;;;;;;;2.90;1.40;;;;;;;13.75;69.61;100460.81;5082748;28;20056;-81
2021/12/31 07:15:32;;;;;;;2.45;1.30;;;;;;;13.67;70.00;100475.66;5076516;28;20060;-80
2021/12/31 07:17:59;;;;;;;2.95;1.33;;;;;;;13.56;70.62;100468.78;5075937;28;20064;-79
2021/12/31 07:20:26;;;;;;;2.83;1.30;;;;;;;13.44;71.11;100483.50;5075597;28;20053;-79
2021/12/31 07:22:54;;;;;;;4.38;1.40;;;;;;;13.47;70.88;100473.59;5076599;28;20048;-81
2021/12/31 07:25:21;;;;;;;3.67;1.27;;;;;;;13.37;70.80;100472.78;5077375;28;20048;-81
2021/12/31 07:27:52;;;;;;;3.90;1.75;;;;;;;13.42;70.84;100482.16;5076712;28;20053;-80
2021/12/31 07:30:20;;;;;;;3.17;1.63;;;;;;;13.36;70.95;100481.53;5076199;28;20052;-81
2021/12/31 07:32:47;;;;;;;2.20;1.27;;;;;;;13.37;71.05;100486.78;5077263;28;20060;-80
2021/12/31 07:35:15;;;;;;;3.80;1.50;;;;;;;13.39;71.18;100495.66;5076449;28;20420;-80
2021/12/31 07:37:42;;;;;;;4.18;1.60;;;;;;;13.44;70.91;100493.84;5076860;28;20048;-81
2021/12/31 07:40:12;;;;;;;3.45;1.58;;;;;;;13.56;70.47;100491.97;5076317;28;20041;-81
2021/12/31 07:42:40;;;;;;;2.25;1.30;;;;;;;13.60;70.44;100489.34;5076308;28;20059;-81
2021/12/31 07:45:10;;;;;;;1.98;1.40;;;;;;;13.56;70.59;100479.97;5076149;28;20485;-81
2021/12/31 07:47:38;;;;;;;3.88;1.50;;;;;;;13.57;70.44;100487.22;5076179;28;20045;-81
2021/12/31 07:50:06;;;;;;;4.15;1.73;;;;;;;13.62;70.19;100486.22;5075528;28;20053;-80
2021/12/31 07:52:33;;;;;;;4.95;2.08;;;;;;;13.61;70.17;100505.00;5075088;28;20056;-79
2021/12/31 07:55:01;;;;;;;3.15;1.40;;;;;;;13.64;69.87;100479.13;5075616;28;20059;-80
2021/12/31 07:57:28;;;;;;;3.45;1.48;;;;;;;13.73;69.63;100479.94;5075946;28;20067;-80
2021/12/31 07:59:55;;;;;;;3.40;1.52;;;;;;;13.72;69.82;100483.06;5075037;28;20063;-80
2021/12/31 08:02:24;;;;;;;3.30;1.50;;;;;;;13.72;69.60;100478.28;5074967;28;20049;-79
2021/12/31 08:04:52;;;;;;;4.15;1.48;;;;;;;13.77;69.48;100494.91;5075432;28;20052;-81
2021/12/31 08:07:19;;;;;;;3.05;1.65;;;;;;;13.91;68.91;100499.44;5074847;28;20061;-78
2021/12/31 08:09:46;;;;;;;3.80;1.52;;;;;;;13.92;68.78;100493.50;5074724;28;20067;-79
2021/12/31 08:12:14;;;;;;;4.13;1.80;;;;;;;14.00;68.66;100494.63;5073984;28;20072;-80
2021/12/31 08:14:41;;;;;;;2.40;1.15;;;;;;;14.15;68.33;100491.25;5057627;28;20055;-79
2021/12/31 08:17:08;;;;;;;3.15;1.55;;;;;;;14.12;68.14;100483.50;5054733;28;20053;-79
2021/12/31 08:19:37;;;;;;;3.20;1.48;;;;;;;14.36;67.49;100484.84;5061600;28;20056;-79
2021/12/31 08:22:05;;;;;;;6.22;1.83;;;;;;;14.33;67.20;100491.16;5075005;28;20394;-80
2021/12/31 08:24:32;;;;;;;3.17;1.50;;;;;;;14.48;67.03;100478.50;5075291;28;20064;-80
2021/12/31 08:27:00;;;;;;;4.53;1.67;;;;;;;14.80;66.13;100477.81;5075854;28;20057;-80
2021/12/31 08:29:27;;;;;;;3.67;1.40;;;;;;;16.13;62.69;100476.84;5075426;28;20060;-80
2021/12/31 08:31:54;;;;;;;2.78;1.52;;;;;;;16.79;59.43;100480.44;5073808;28;20060;-80
2021/12/31 08:34:22;;;;;;;3.17;1.50;;;;;;;16.67;59.03;100489.72;5075157;28;20048;-79
2021/12/31 08:36:51;;;;;;;2.25;1.17;;;;;;;16.69;58.93;100497.81;5075451;28;20052;-80
2021/12/31 08:39:18;;;;;;;2.58;1.30;;;;;;;16.41;59.54;100482.53;5074864;28;20458;-81
2021/12/31 08:41:46;;;;;;;3.78;1.40;;;;;;;16.21;60.31;100495.56;5074179;28;20048;-80
2021/12/31 08:44:13;;;;;;;3.08;1.42;;;;;;;16.50;60.18;100492.81;5074503;28;20075;-80
2021/12/31 08:46:42;;;;;;;2.80;1.27;;;;;;;16.89;58.19;100491.25;5074271;28;20052;-80
2021/12/31 08:49:09;;;;;;;4.13;1.50;;;;;;;16.75;58.55;100479.53;5074366;28;20060;-79
2021/12/31 08:51:38;;;;;;;2.50;1.13;;;;;;;17.04;57.90;100470.78;5074101;28;20049;-79
2021/12/31 08:54:07;;;;;;;2.50;1.23;;;;;;;18.02;55.01;100471.38;5073806;28;20056;-79
2021/12/31 08:56:34;;;;;;;2.70;1.40;;;;;;;18.80;52.33;100488.50;5074483;28;20444;-79
2021/12/31 08:59:03;;;;;;;2.22;1.08;;;;;;;17.79;54.61;100485.25;5073941;28;20059;-80
2021/12/31 09:01:31;;;;;;;2.65;1.58;;;;;;;16.71;57.78;100485.03;5074921;28;20401;-80
2021/12/31 09:03:58;;;;;;;2.22;1.17;;;;;;;17.02;56.73;100506.91;5074115;28;20505;-80
2021/12/31 09:06:25;;;;;;;3.63;1.50;;;;;;;17.78;54.99;100501.31;5073855;28;20049;-80
2021/12/31 09:08:53;;;;;;;2.72;1.40;;;;;;;18.54;52.79;100506.84;5074081;28;20063;-81
2021/12/31 09:11:22;;;;;;;3.42;1.40;;;;;;;18.55;52.64;100500.00;5073371;28;20049;-80
2021/12/31 09:13:52;;;;;;;2.47;1.10;;;;;;;18.10;53.28;100497.72;5073958;28;20059;-80
2021/12/31 09:16:19;;;;;;;2.53;1.33;;;;;;;17.95;54.23;100496.53;5073547;28;20052;-80
2021/12/31 09:18:47;;;;;;;2.83;1.30;;;;;;;17.59;54.84;100509.69;5092864;28;20059;-80
2021/12/31 09:21:17;;;;;;;4.20;1.33;;;;;;;17.76;54.76;100512.13;5084213;28;20049;-80
2021/12/31 09:23:45;;;;;;;2.20;1.25;;;;;;;18.42;52.28;100512.59;5074541;28;20053;-80
2021/12/31 09:26:13;;;;;;;2.35;1.38;;;;;;;17.36;55.68;100512.25;5074018;28;20063;-79
2021/12/31 09:28:43;;;;;;;3.90;1.50;;;;;;;17.16;56.03;100522.56;5073771;28;20048;-80
2021/12/31 09:31:10;;;;;;;3.08;1.10;;;;;;;16.87;57.00;100521.72;5073362;28;20053;-81
2021/12/31 09:33:38;;;;;;;2.63;1.30;;;;;;;16.96;56.38;100513.94;5074307;28;20057;-81
2021/12/31 09:36:06;;;;;;;2.60;1.10;;;;;;;16.81;56.98;100509.09;5074646;28;20493;-80
2021/12/31 09:38:33;;;;;;;3.35;1.67;;;;;;;16.51;57.49;100503.72;5074745;28;20052;-80
2021/12/31 09:41:01;;;;;;;2.83;1.20;;;;;;;16.43;57.71;100513.09;5073447;28;20489;-81
2021/12/31 09:43:28;;;;;;;1.95;1.00;;;;;;;16.37;58.41;100504.09;5079325;28;20489;-79
2021/12/31 09:45:57;;;;;;;2.80;1.10;;;;;;;16.16;58.36;100518.28;5081344;28;20052;-80
2021/12/31 09:48:29;;;;;;;3.20;1.10;;;;;;;16.03;58.96;100509.03;5081015;28;20063;-80
2021/12/31 09:50:57;;;;;;;2.35;1.10;;;;;;;16.20;58.65;100509.97;5079756;28;20098;-81
2021/12/31 09:53:26;;;;;;;4.55;1.30;;;;;;;16.11;58.83;100496.03;5079105;28;20382;-71
2021/12/31 09:55:55;;;;;;;2.92;1.27;;;;;;;15.81;59.90;100510.31;5077914;28;20052;-74
2021/12/31 09:58:25;;;;;;;1.67;1.05;;;;;;;15.77;60.30;100530.97;5080029;28;20067;-80
2021/12/31 10:00:54;;;;;;;2.15;0.90;;;;;;;16.27;58.27;100532.66;5090212;28;20063;-79
2021/12/31 10:03:26;;;;;;;5.28;1.00;;;;;;;16.28;58.11;100531.50;5088151;28;20052;-81
2021/12/31 10:05:55;;;;;;;2.08;1.20;;;;;;;16.22;57.83;100522.50;5090714;28;20500;-81
2021/12/31 10:08:24;;;;;;;1.83;1.10;;;;;;;16.36;57.88;100521.34;5092783;28;20044;-81
2021/12/31 10:11:08;;;;;;;2.95;1.45;;;;;;;16.60;57.03;100500.78;5093610;28;20048;-81
2021/12/31 10:13:38;;;;;;;2.28;1.10;;;;;;;16.49;56.94;100506.06;5090185;28;20052;-81
2021/12/31 10:16:06;;;;;;;3.50;1.27;;;;;;;16.19;57.87;100486.66;5091469;28;20052;-80
2021/12/31 10:18:36;;;;;;;1.50;0.82;;;;;;;15.95;58.79;100509.13;5092794;28;20048;-81
2021/12/31 10:21:05;;;;;;;1.75;1.00;;;;;;;16.34;57.50;100493.56;5087725;28;20052;-81
2021/12/31 10:23:38;;;;;;;2.70;1.10;;;;;;;16.53;56.72;100486.50;5090233;28;20059;-83
2021/12/31 10:26:13;;;;;;;2.10;1.20;;;;;;;16.26;57.75;100465.59;5080833;28;20134;-81
2021/12/31 10:28:53;;;;;;;2.05;1.10;;;;;;;16.16;57.89;100466.88;5089644;28;20056;-80
2021/12/31 10:31:20;;;;;;;2.85;1.52;;;;;;;16.22;57.69;100483.13;5089384;28;20053;-81
2021/12/31 10:33:50;;;;;;;2.33;0.95;;;;;;;16.60;56.80;100479.09;5089909;28;20056;-80
2021/12/31 10:36:37;;;;;;;;;;;;;;;16.55;56.91;100490.59;5091228;28;20056;-80
2021/12/31 10:39:24;;;;;;;3.25;1.13;;;;;;;17.30;54.69;100485.53;5072365;28;19927;-80
2021/12/31 10:41:53;;;;;;;1.85;0.90;;;;;;;18.92;50.79;100484.69;5085143;28;20048;-83
2021/12/31 10:44:20;;;;;;;1.70;1.00;;;;;;;18.77;50.54;100470.28;5086445;28;20061;-82
2021/12/31 10:47:07;;;;;;;1.85;0.90;;;;;;;18.57;50.55;100475.06;5087956;28;20044;-82
2021/12/31 10:49:37;;;;;;;2.13;1.10;;;;;;;18.20;51.86;100481.06;5084155;28;20057;-83
2021/12/31 10:52:05;;;;;;;2.30;1.00;;;;;;;17.42;53.18;100508.81;5083160;28;20044;-83
2021/12/31 10:54:44;;;;;;;2.55;1.30;;;;;;;17.39;53.89;100497.47;5080811;28;20065;-83
2021/12/31 10:57:12;;;;;;;2.00;1.00;;;;;;;17.10;54.90;100504.31;5080777;28;20059;-83
2021/12/31 10:59:39;;;;;;;2.65;1.10;;;;;;;16.89;55.29;100496.06;5080630;28;20063;-82
2021/12/31 11:02:07;;;;;;;2.67;1.05;;;;;;;16.85;55.80;100490.31;5080795;28;20052;-84
2021/12/31 11:04:36;;;;;;;3.45;1.10;;;;;;;17.07;55.36;100499.38;5080624;28;20052;-83
2021/12/31 11:07:07;;;;;;;1.90;0.80;;;;;;;17.75;53.17;100476.72;5079437;28;20045;-82
2021/12/31 11:09:36;;;;;;;2.75;0.93;;;;;;;19.91;47.73;100479.38;5081274;28;20044;-83
2021/12/31 11:12:05;;;;;;;3.03;1.20;;;;;;;18.29;50.64;100480.88;5080257;28;20064;-82
2021/12/31 11:14:33;;;;;;;2.58;1.02;;;;;;;17.50;52.89;100484.50;5078797;28;20068;-83
2021/12/31 11:17:01;;;;;;;1.60;0.90;;;;;;;16.99;54.67;100487.13;5076197;28;20063;-83
2021/12/31 11:19:28;;;;;;;3.95;1.00;;;;;;;17.09;54.50;100505.47;5066090;28;20033;-82
2021/12/31 11:21:58;;;;;;;2.08;1.13;;;;;;;16.85;55.73;100493.13;5080137;28;20084;-85
2021/12/31 11:24:30;;;;;;;1.90;0.95;;;;;;;16.57;56.25;100485.44;5078501;28;20048;-81
2021/12/31 11:26:59;;;;;;;3.45;1.40;;;;;;;16.11;57.71;100473.56;5077864;28;20048;-83
2021/12/31 11:29:37;;;;;;;2.25;1.00;;;;;;;15.88;58.15;100475.19;5080228;28;20048;-83
2021/12/31 11:32:08;;;;;;;2.08;1.10;;;;;;;16.02;57.93;100456.81;5079449;28;20064;-83
2021/12/31 11:34:37;;;;;;;2.17;1.10;;;;;;;15.36;59.82;100456.94;5077875;28;20048;-84
2021/12/31 11:37:06;;;;;;;2.67;1.40;;;;;;;15.50;59.56;100437.81;5080830;28;20063;-84
2021/12/31 11:39:36;;;;;;;2.10;1.27;;;;;;;15.37;60.29;100461.38;5080194;28;20056;-84
2021/12/31 11:42:06;;;;;;;3.80;1.10;;;;;;;15.55;59.86;100453.59;5080162;28;20056;-85